createdAt,value
2018-08-04T00:00:36.799Z,12.07
2018-08-04T00:03:06.565Z,12.20
2018-08-04T00:05:36.642Z,12.53
2018-08-04T00:08:07.438Z,12.88
2018-08-04T00:10:37.582Z,12.55
2018-08-04T00:13:08.555Z,13.58
2018-08-04T00:15:38.961Z,12.85
2018-08-04T00:18:09.370Z,12.28
2018-08-04T00:20:40.725Z,12.33
2018-08-04T00:23:11.453Z,13.35
2018-08-04T00:25:42.691Z,13.62
2018-08-04T00:28:14.472Z,13.62
2018-08-04T00:30:44.860Z,13.70
2018-08-04T00:33:16.314Z,13.18
2018-08-04T00:35:46.381Z,13.62
2018-08-04T00:38:17.342Z,13.53
2018-08-04T00:40:47.442Z,13.80
2018-08-04T00:43:17.223Z,14.00
2018-08-04T00:45:47.582Z,14.58
2018-08-04T00:48:18.656Z,14.20
2018-08-04T00:50:50.002Z,14.38
2018-08-04T00:53:20.140Z,12.75
2018-08-04T00:55:50.162Z,14.60
2018-08-04T00:58:20.206Z,13.72
2018-08-04T01:00:50.323Z,13.55
2018-08-04T01:03:20.403Z,13.45
2018-08-04T01:05:50.226Z,13.43
2018-08-04T01:08:20.250Z,13.38
2018-08-04T01:10:50.326Z,13.00
2018-08-04T01:13:20.401Z,13.60
2018-08-04T01:15:51.404Z,12.90
2018-08-04T01:18:21.523Z,13.65
2018-08-04T01:20:52.561Z,14.15
2018-08-04T01:23:23.288Z,13.35
2018-08-04T01:25:53.681Z,12.88
2018-08-04T01:28:24.403Z,13.18
2018-08-04T01:30:55.442Z,14.30
2018-08-04T01:33:26.489Z,13.38
2018-08-04T01:35:57.844Z,13.32
2018-08-04T01:38:27.608Z,13.48
2018-08-04T01:40:58.238Z,13.98
2018-08-04T01:43:28.406Z,13.80
2018-08-04T01:45:58.482Z,13.22
2018-08-04T01:48:29.117Z,13.93
2018-08-04T01:51:00.567Z,13.75
2018-08-04T01:53:31.285Z,13.93
2018-08-04T01:56:02.324Z,13.58
2018-08-04T01:58:32.403Z,13.95
2018-08-04T02:01:02.814Z,14.07
2018-08-04T02:03:33.163Z,13.58
2018-08-04T02:06:03.371Z,14.65
2018-08-04T02:08:34.288Z,13.95
2018-08-04T02:11:04.466Z,14.68
2018-08-04T02:13:35.444Z,15.30
2018-08-04T02:16:06.807Z,15.20
2018-08-04T02:18:37.523Z,14.60
2018-08-04T02:21:07.602Z,15.08
2018-08-04T02:23:38.636Z,14.68
2018-08-04T02:26:09.045Z,14.20
2018-08-04T02:28:39.778Z,14.60
2018-08-04T02:31:10.179Z,13.50
2018-08-04T02:33:39.864Z,14.38
2018-08-04T02:36:09.617Z,14.50
2018-08-04T02:38:39.696Z,14.68
2018-08-04T02:41:09.452Z,14.10
2018-08-04T02:43:39.033Z,15.13
2018-08-04T02:46:09.710Z,14.95
2018-08-04T02:48:39.372Z,14.90
2018-08-04T02:51:10.206Z,15.75
2018-08-04T02:53:40.183Z,14.70
2018-08-04T02:56:09.997Z,13.90
2018-08-04T02:58:40.017Z,14.20
2018-08-04T03:01:09.836Z,14.60
2018-08-04T03:03:39.540Z,14.90
2018-08-04T03:06:09.297Z,14.00
2018-08-04T03:08:39.959Z,14.10
2018-08-04T03:11:09.708Z,14.47
2018-08-04T03:13:39.473Z,13.50
2018-08-04T03:16:10.608Z,14.10
2018-08-04T03:18:41.341Z,13.20
2018-08-04T03:21:12.087Z,13.80
2018-08-04T03:23:41.894Z,12.85
2018-08-04T03:26:11.986Z,13.08
2018-08-04T03:28:42.000Z,13.43
2018-08-04T03:31:12.142Z,13.03
2018-08-04T03:33:42.217Z,13.10
2018-08-04T03:36:12.242Z,13.18
2018-08-04T03:38:42.325Z,12.78
2018-08-04T03:41:12.468Z,13.08
2018-08-04T03:43:43.448Z,13.65
2018-08-04T03:46:14.175Z,12.70
2018-08-04T03:48:44.242Z,13.55
2018-08-04T03:51:14.319Z,13.28
2018-08-04T03:53:44.080Z,14.10
2018-08-04T03:56:14.130Z,13.85
2018-08-04T03:58:44.249Z,14.00
2018-08-04T04:01:14.321Z,13.32
2018-08-04T04:03:44.400Z,13.72
2018-08-04T04:06:14.480Z,13.00
2018-08-04T04:08:45.212Z,14.73
2018-08-04T04:11:16.214Z,13.10
2018-08-04T04:13:46.322Z,13.85
2018-08-04T04:16:16.720Z,13.25
2018-08-04T04:18:47.441Z,13.95
2018-08-04T04:21:17.492Z,13.98
2018-08-04T04:23:48.808Z,13.58
2018-08-04T04:26:19.603Z,13.03
2018-08-04T04:28:50.321Z,13.10
2018-08-04T04:31:20.723Z,13.43
2018-08-04T04:33:51.407Z,12.95
2018-08-04T04:36:22.784Z,12.55
2018-08-04T04:38:53.521Z,13.60
2018-08-04T04:41:24.571Z,14.80
2018-08-04T04:43:55.281Z,12.85
2018-08-04T04:46:26.641Z,13.48
2018-08-04T04:48:57.681Z,13.48
2018-08-04T04:51:27.769Z,13.18
2018-08-04T04:53:57.520Z,12.23
2018-08-04T04:56:28.884Z,11.48
2018-08-04T04:58:59.247Z,11.83
2018-08-04T05:01:30.321Z,12.30
2018-08-04T05:04:00.340Z,11.85
2018-08-04T05:06:30.162Z,11.65
2018-08-04T05:09:00.561Z,11.97
2018-08-04T05:11:31.715Z,12.10
2018-08-04T05:14:02.966Z,12.23
2018-08-04T05:16:33.681Z,11.65
2018-08-04T05:19:04.720Z,12.00
2018-08-04T05:21:35.462Z,11.88
2018-08-04T05:24:06.482Z,12.23
2018-08-04T05:26:37.805Z,12.10
2018-08-04T05:29:07.608Z,12.25
2018-08-04T05:31:38.374Z,11.22
2018-08-04T05:34:08.401Z,11.28
2018-08-04T05:36:38.161Z,12.35
2018-08-04T05:39:09.841Z,11.40
2018-08-04T05:41:39.925Z,13.03
2018-08-04T05:44:10.002Z,13.05
2018-08-04T05:46:40.152Z,12.68
2018-08-04T05:49:10.164Z,13.20
2018-08-04T05:51:39.924Z,13.70
2018-08-04T05:54:10.096Z,12.15
2018-08-04T05:56:39.951Z,13.22
2018-08-04T05:59:09.842Z,12.43
2018-08-04T06:01:39.904Z,12.25
2018-08-04T06:04:11.284Z,12.00
2018-08-04T06:06:42.009Z,12.03
2018-08-04T06:09:12.723Z,10.85
2018-08-04T06:11:43.437Z,11.12
2018-08-04T06:14:13.530Z,10.38
2018-08-04T06:16:44.234Z,10.80
2018-08-04T06:19:14.360Z,11.70
2018-08-04T06:21:44.410Z,12.95
2018-08-04T06:24:14.482Z,11.08
2018-08-04T06:26:44.566Z,11.53
2018-08-04T06:29:15.291Z,11.18
2018-08-04T06:31:45.965Z,10.43
2018-08-04T06:34:15.984Z,11.20
2018-08-04T06:36:46.222Z,11.40
2018-08-04T06:39:16.243Z,10.88
2018-08-04T06:41:46.382Z,12.30
2018-08-04T06:44:16.409Z,11.25
2018-08-04T06:46:46.483Z,10.60
2018-08-04T06:49:16.562Z,11.08
2018-08-04T06:51:47.928Z,11.40
2018-08-04T06:54:17.872Z,11.53
2018-08-04T06:56:47.514Z,11.90
2018-08-04T06:59:18.486Z,11.20
2018-08-04T07:01:49.203Z,11.18
2018-08-04T07:04:20.868Z,11.70
2018-08-04T07:06:51.772Z,10.95
2018-08-04T07:09:21.683Z,11.73
2018-08-04T07:11:53.047Z,10.85
2018-08-04T07:14:24.402Z,10.85
2018-08-04T07:16:54.678Z,11.33
2018-08-04T07:19:25.845Z,11.00
2018-08-04T07:21:55.611Z,10.95
2018-08-04T07:24:25.686Z,10.78
2018-08-04T07:26:58.025Z,11.48
2018-08-04T07:29:28.091Z,11.20
2018-08-04T07:31:58.484Z,11.88
2018-08-04T07:34:28.441Z,11.65
2018-08-04T07:36:58.325Z,11.60
2018-08-04T07:39:28.414Z,12.00
2018-08-04T07:41:58.350Z,11.35
2018-08-04T07:44:28.240Z,10.95
2018-08-04T07:46:58.326Z,10.23
2018-08-04T07:49:28.467Z,10.98
2018-08-04T07:51:58.254Z,11.40
2018-08-04T07:54:28.240Z,11.35
2018-08-04T07:56:58.336Z,11.00
2018-08-04T07:59:28.452Z,11.35
2018-08-04T08:01:58.506Z,10.55
2018-08-04T08:04:29.205Z,10.65
2018-08-04T08:07:00.183Z,11.38
2018-08-04T08:09:30.324Z,11.05
2018-08-04T08:12:00.406Z,11.03
2018-08-04T08:14:30.480Z,10.45
2018-08-04T08:17:00.566Z,11.25
2018-08-04T08:19:31.072Z,11.30
2018-08-04T08:22:01.361Z,9.43
2018-08-04T08:24:31.761Z,11.12
2018-08-04T08:27:01.843Z,10.23
2018-08-04T08:29:31.601Z,9.70
2018-08-04T08:32:02.322Z,9.83
2018-08-04T08:34:32.401Z,9.18
2018-08-04T08:37:02.361Z,9.68
2018-08-04T08:39:32.564Z,10.82
2018-08-04T08:42:03.564Z,9.75
2018-08-04T08:44:34.440Z,7.90
2018-08-04T08:47:04.000Z,8.80
2018-08-04T08:49:34.225Z,9.08
2018-08-04T08:52:04.174Z,8.08
2018-08-04T08:54:33.682Z,8.20
2018-08-04T08:57:04.407Z,8.05
2018-08-04T08:59:34.481Z,8.10
2018-08-04T09:02:04.497Z,7.97
2018-08-04T09:04:34.656Z,8.20
2018-08-04T09:07:06.322Z,7.95
2018-08-04T09:09:36.084Z,8.08
2018-08-04T09:12:05.842Z,7.12
2018-08-04T09:14:35.880Z,7.37
2018-08-04T09:17:05.684Z,7.35
2018-08-04T09:19:36.778Z,6.70
2018-08-04T09:22:07.764Z,7.37
2018-08-04T09:24:38.484Z,7.72
2018-08-04T09:27:08.493Z,7.30
2018-08-04T09:29:38.983Z,7.03
2018-08-04T09:32:09.710Z,7.17
2018-08-04T09:34:40.426Z,7.20
2018-08-04T09:37:10.414Z,7.15
2018-08-04T09:39:39.852Z,6.60
2018-08-04T09:42:09.288Z,6.45
2018-08-04T09:44:40.155Z,5.60
2018-08-04T09:47:10.092Z,4.60
2018-08-04T09:49:39.849Z,4.70
2018-08-04T09:52:09.618Z,4.37
2018-08-04T09:54:39.362Z,4.75
2018-08-04T09:57:10.184Z,4.50
2018-08-04T09:59:40.190Z,4.33
2018-08-04T10:02:13.454Z,5.30
2018-08-04T10:04:44.329Z,5.25
2018-08-04T10:07:14.073Z,4.95
2018-08-04T10:09:44.017Z,5.60
2018-08-04T10:12:13.663Z,5.78
2018-08-04T10:14:43.942Z,5.58
2018-08-04T10:17:13.612Z,5.45
2018-08-04T10:19:44.795Z,5.40
2018-08-04T10:22:15.142Z,5.53
2018-08-04T10:24:45.947Z,5.12
2018-08-04T10:27:15.861Z,5.85
2018-08-04T10:29:45.297Z,6.10
2018-08-04T10:32:15.865Z,6.08
2018-08-04T10:34:45.772Z,6.30
2018-08-04T10:37:16.635Z,5.92
2018-08-04T10:39:46.993Z,6.97
2018-08-04T10:42:17.768Z,6.83
2018-08-04T10:44:48.796Z,6.25
2018-08-04T10:47:19.467Z,6.78
2018-08-04T10:49:50.248Z,6.65
2018-08-04T10:52:19.860Z,6.22
2018-08-04T10:54:49.624Z,6.35
2018-08-04T10:57:20.481Z,6.33
2018-08-04T10:59:50.413Z,6.22
2018-08-04T11:02:20.176Z,6.30
2018-08-04T11:04:49.933Z,5.87
2018-08-04T11:07:19.696Z,6.37
2018-08-04T11:09:50.874Z,6.17
2018-08-04T11:12:22.186Z,6.67
2018-08-04T11:14:52.189Z,6.00
2018-08-04T11:17:21.621Z,6.45
2018-08-04T11:19:52.109Z,5.62
2018-08-04T11:22:22.235Z,5.78
2018-08-04T11:24:52.634Z,6.42
2018-08-04T11:27:23.311Z,6.00
2018-08-04T11:29:53.820Z,5.90
2018-08-04T11:32:23.699Z,6.08
2018-08-04T11:34:54.194Z,6.62
2018-08-04T11:37:23.858Z,8.78
2018-08-04T11:39:53.618Z,6.42
2018-08-04T11:42:24.533Z,5.83
2018-08-04T11:44:54.417Z,6.25
2018-08-04T11:47:24.314Z,6.17
2018-08-04T11:49:54.262Z,6.17
2018-08-04T11:52:24.182Z,6.25
2018-08-04T11:54:53.776Z,5.50
2018-08-04T11:57:24.583Z,5.60
2018-08-04T11:59:54.245Z,6.30
2018-08-04T12:02:23.732Z,6.60
2018-08-04T12:04:54.187Z,5.90
2018-08-04T12:07:23.865Z,5.97
2018-08-04T12:09:53.292Z,6.10
2018-08-04T12:12:23.782Z,6.50
2018-08-04T12:14:54.837Z,6.22
2018-08-04T12:17:25.867Z,6.20
2018-08-04T12:19:55.915Z,5.95
2018-08-04T12:22:25.621Z,5.78
2018-08-04T12:24:56.111Z,6.20
2018-08-04T12:27:26.507Z,5.70
2018-08-04T12:29:56.175Z,5.42
2018-08-04T12:32:25.932Z,5.78
2018-08-04T12:34:55.691Z,5.62
2018-08-04T12:37:26.564Z,5.70
2018-08-04T12:39:56.176Z,5.87
2018-08-04T12:42:26.259Z,5.97
2018-08-04T12:44:56.027Z,5.67
2018-08-04T12:47:25.778Z,5.67
2018-08-04T12:49:56.640Z,6.00
2018-08-04T12:52:26.984Z,5.80
2018-08-04T12:54:57.714Z,5.42
2018-08-04T12:57:28.153Z,5.92
2018-08-04T12:59:58.091Z,5.72
2018-08-04T13:02:27.861Z,5.40
2018-08-04T13:04:57.616Z,5.03
2018-08-04T13:07:28.430Z,5.58
2018-08-04T13:09:58.416Z,5.67
2018-08-04T13:12:28.172Z,5.67
2018-08-04T13:14:57.932Z,5.60
2018-08-04T13:17:27.696Z,5.60
2018-08-04T13:19:57.453Z,5.40
2018-08-04T13:22:28.268Z,5.87
2018-08-04T13:24:57.612Z,6.05
2018-08-04T13:27:28.154Z,5.55
2018-08-04T13:29:58.097Z,5.83
2018-08-04T13:32:28.013Z,5.80
2018-08-04T13:34:57.622Z,6.37
2018-08-04T13:37:28.430Z,6.08
2018-08-04T13:39:58.092Z,5.10
2018-08-04T13:42:27.857Z,5.60
2018-08-04T13:44:57.617Z,5.72
2018-08-04T13:47:27.377Z,6.15
2018-08-04T13:49:58.187Z,8.73
2018-08-04T13:52:28.177Z,11.05
2018-08-04T13:54:58.287Z,6.92
2018-08-04T13:57:27.706Z,6.17
2018-08-04T13:59:58.507Z,5.72
2018-08-04T14:02:28.541Z,5.33
2018-08-04T14:04:58.259Z,5.37
2018-08-04T14:07:28.344Z,5.45
2018-08-04T14:09:58.102Z,6.50
2018-08-04T14:12:27.906Z,5.33
2018-08-04T14:14:58.074Z,5.87
2018-08-04T14:17:27.727Z,5.87
2018-08-04T14:19:57.773Z,5.35
2018-08-04T14:22:28.653Z,5.35
2018-08-04T14:24:58.982Z,5.55
2018-08-04T14:27:29.388Z,5.08
2018-08-04T14:30:00.108Z,5.00
2018-08-04T14:32:30.099Z,5.20
2018-08-04T14:34:59.882Z,5.17
2018-08-04T14:37:29.788Z,5.70
2018-08-04T14:40:00.429Z,5.83
2018-08-04T14:42:30.093Z,5.72
2018-08-04T14:44:59.853Z,6.33
2018-08-04T14:47:29.760Z,5.45
2018-08-04T14:50:00.426Z,5.45
2018-08-04T14:52:30.412Z,6.60
2018-08-04T14:55:00.239Z,5.53
2018-08-04T14:57:30.338Z,5.72
2018-08-04T15:00:00.021Z,5.78
2018-08-04T15:02:29.818Z,5.90
2018-08-04T15:04:59.634Z,5.62
2018-08-04T15:07:30.348Z,5.80
2018-08-04T15:10:00.366Z,5.35
2018-08-04T15:12:30.092Z,5.53
2018-08-04T15:14:59.852Z,5.85
2018-08-04T15:17:29.612Z,6.05
2018-08-04T15:20:00.677Z,5.90
2018-08-04T15:22:31.516Z,6.47
2018-08-04T15:25:02.505Z,7.30
2018-08-04T15:27:32.877Z,6.50
2018-08-04T15:30:04.318Z,7.30
2018-08-04T15:32:33.932Z,6.80
2018-08-04T15:35:03.834Z,6.12
2018-08-04T15:37:34.231Z,6.62
2018-08-04T15:40:04.169Z,7.50
2018-08-04T15:42:33.932Z,6.67
2018-08-04T15:45:03.801Z,7.45
2018-08-04T15:47:34.827Z,7.25
2018-08-04T15:50:05.548Z,6.67
2018-08-04T15:52:36.310Z,6.62
2018-08-04T15:55:05.928Z,6.33
2018-08-04T15:57:35.700Z,6.72
2018-08-04T16:00:07.062Z,6.70
2018-08-04T16:02:37.542Z,6.65
2018-08-04T16:05:08.302Z,6.87
2018-08-04T16:07:38.257Z,6.78
2018-08-04T16:10:07.752Z,6.65
2018-08-04T16:12:38.303Z,7.45
2018-08-04T16:15:08.193Z,7.50
2018-08-04T16:17:37.941Z,7.22
2018-08-04T16:20:11.857Z,7.33
2018-08-04T16:22:41.482Z,7.37
2018-08-04T16:25:12.427Z,8.55
2018-08-04T16:27:42.744Z,7.33
2018-08-04T16:30:13.236Z,7.42
2018-08-04T16:32:43.952Z,7.60
2018-08-04T16:35:13.945Z,26.42
2018-08-04T16:37:43.772Z,8.20
2018-08-04T16:40:14.199Z,7.47
2018-08-04T16:42:44.315Z,8.43
2018-08-04T16:45:14.456Z,8.95
2018-08-04T16:47:44.342Z,9.30
2018-08-04T16:50:14.107Z,9.35
2018-08-04T16:52:43.852Z,9.95
2018-08-04T16:55:13.622Z,9.03
2018-08-04T16:57:43.490Z,8.85
2018-08-04T17:00:14.236Z,9.55
2018-08-04T17:02:43.853Z,10.10
2018-08-04T17:05:14.717Z,9.45
2018-08-04T17:07:45.392Z,9.05
2018-08-04T17:10:15.786Z,9.55
2018-08-04T17:12:46.234Z,10.35
2018-08-04T17:15:16.176Z,12.68
2018-08-04T17:17:45.995Z,13.75
2018-08-04T17:20:15.417Z,13.55
2018-08-04T17:22:46.852Z,14.15
2018-08-04T17:25:17.781Z,12.73
2018-08-04T17:27:48.961Z,13.65
2018-08-04T17:30:19.306Z,12.73
2018-08-04T17:32:48.977Z,12.05
2018-08-04T17:35:19.467Z,15.58
2018-08-04T17:37:50.194Z,15.63
2018-08-04T17:40:19.942Z,14.45
2018-08-04T17:42:49.622Z,12.73
2018-08-04T17:45:20.432Z,10.60
2018-08-04T17:47:50.482Z,12.60
2018-08-04T17:50:20.186Z,13.60
2018-08-04T17:52:50.577Z,12.85
2018-08-04T17:55:20.342Z,11.03
2018-08-04T17:57:50.102Z,10.60
2018-08-04T18:00:20.907Z,9.58
2018-08-04T18:02:51.369Z,11.97
2018-08-04T18:05:22.035Z,11.40
2018-08-04T18:07:51.697Z,10.70
2018-08-04T18:10:22.507Z,12.23
2018-08-04T18:12:52.497Z,12.98
2018-08-04T18:15:22.713Z,14.38
2018-08-04T18:17:53.067Z,16.95
2018-08-04T18:20:23.841Z,21.25
2018-08-04T18:22:54.187Z,19.48
2018-08-04T18:25:24.359Z,18.20
2018-08-04T18:27:54.257Z,18.25
2018-08-04T18:30:24.031Z,19.00
2018-08-04T18:32:53.777Z,18.00
2018-08-04T18:35:24.659Z,20.10
2018-08-04T18:37:54.739Z,18.82
2018-08-04T18:40:25.707Z,18.07
2018-08-04T18:42:55.788Z,16.82
2018-08-04T18:45:27.613Z,18.07
2018-08-04T18:47:58.506Z,17.60
2018-08-04T18:50:28.818Z,16.75
2018-08-04T18:52:59.645Z,16.40
2018-08-04T18:55:29.624Z,16.80
2018-08-04T18:58:00.751Z,15.78
2018-08-04T19:00:31.226Z,15.63
2018-08-04T19:03:01.898Z,13.48
2018-08-04T19:05:33.011Z,12.80
2018-08-04T19:08:03.635Z,12.43
2018-08-04T19:10:34.350Z,11.73
2018-08-04T19:13:03.833Z,11.40
2018-08-04T19:15:34.192Z,12.30
2018-08-04T19:18:04.178Z,12.47
2018-08-04T19:20:33.942Z,13.22
2018-08-04T19:23:03.699Z,12.68
2018-08-04T19:25:34.633Z,12.65
2018-08-04T19:28:04.209Z,12.78
2018-08-04T19:30:33.942Z,12.50
2018-08-04T19:33:04.430Z,13.20
2018-08-04T19:35:34.422Z,12.43
2018-08-04T19:38:04.502Z,13.72
2018-08-04T19:40:34.256Z,12.82
2018-08-04T19:43:03.712Z,12.03
2018-08-04T19:45:34.196Z,15.68
2018-08-04T19:48:04.252Z,13.25
2018-08-04T19:50:34.257Z,12.43
2018-08-04T19:53:03.843Z,12.82
2018-08-04T19:55:34.779Z,13.10
2018-08-04T19:58:05.551Z,12.60
2018-08-04T20:00:36.268Z,12.95
2018-08-04T20:03:06.262Z,12.68
2018-08-04T20:05:36.343Z,13.50
2018-08-04T20:08:06.117Z,11.85
2018-08-04T20:10:36.559Z,13.08
2018-08-04T20:13:06.158Z,12.73
2018-08-04T20:15:36.022Z,13.32
2018-08-04T20:18:05.786Z,13.20
2018-08-04T20:20:36.633Z,12.35
2018-08-04T20:23:06.262Z,13.43
2018-08-04T20:25:36.337Z,13.03
2018-08-04T20:28:06.097Z,13.83
2018-08-04T20:30:35.882Z,13.93
2018-08-04T20:33:06.988Z,14.45
2018-08-04T20:35:37.067Z,14.80
2018-08-04T20:38:07.795Z,14.83
2018-08-04T20:40:38.193Z,16.12
2018-08-04T20:43:08.242Z,16.57
2018-08-04T20:45:38.267Z,18.55
2018-08-04T20:48:08.463Z,17.10
2018-08-04T20:50:38.418Z,17.05
2018-08-04T20:53:08.953Z,16.65
2018-08-04T20:55:38.615Z,16.10
2018-08-04T20:58:08.442Z,16.00
2018-08-04T21:00:40.343Z,15.00
2018-08-04T21:03:10.807Z,15.58
2018-08-04T21:05:41.559Z,16.48
2018-08-04T21:08:11.947Z,16.48
2018-08-04T21:10:42.004Z,15.78
2018-08-04T21:13:12.017Z,16.87
2018-08-04T21:15:41.777Z,15.63
2018-08-04T21:18:12.272Z,15.30
2018-08-04T21:20:42.056Z,15.48
2018-08-04T21:23:12.018Z,15.83
2018-08-04T21:25:41.777Z,15.72
2018-08-04T21:28:12.587Z,14.70
2018-08-04T21:30:42.257Z,16.45
2018-08-04T21:33:12.017Z,15.10
2018-08-04T21:35:41.822Z,14.68
2018-08-04T21:38:12.271Z,15.93
2018-08-04T21:40:42.285Z,15.00
2018-08-04T21:43:12.018Z,15.63
2018-08-04T21:45:41.777Z,14.45
2018-08-04T21:48:12.267Z,14.23
2018-08-04T21:50:43.947Z,14.55
2018-08-04T21:53:14.699Z,14.85
2018-08-04T21:55:45.362Z,14.13
2018-08-04T21:58:16.157Z,13.80
2018-08-04T22:00:52.337Z,13.15
2018-08-04T22:03:22.272Z,13.85
2018-08-04T22:05:52.022Z,13.60
2018-08-04T22:08:26.687Z,14.07
2018-08-04T22:10:56.658Z,14.10
2018-08-04T22:13:29.510Z,13.83
2018-08-04T22:16:00.106Z,14.63
2018-08-04T22:18:31.152Z,14.28
2018-08-04T22:21:01.554Z,15.55
2018-08-04T22:23:32.268Z,18.48
2018-08-04T22:26:02.272Z,16.40
2018-08-04T22:28:32.342Z,16.97
2018-08-04T22:31:02.234Z,16.10
2018-08-04T22:33:31.874Z,15.95
2018-08-04T22:36:02.353Z,16.42
2018-08-04T22:38:32.171Z,15.88
2018-08-04T22:41:01.777Z,16.48
2018-08-04T22:43:32.269Z,15.95
2018-08-04T22:46:04.497Z,15.70
2018-08-04T22:48:34.577Z,15.68
2018-08-04T22:51:04.342Z,16.17
2018-08-04T22:53:34.103Z,17.55
2018-08-04T22:56:03.917Z,16.00
2018-08-04T22:58:34.667Z,15.95
2018-08-04T23:01:04.657Z,15.60
2018-08-04T23:03:34.413Z,15.65
2018-08-04T23:06:04.176Z,15.75
2018-08-04T23:08:34.046Z,15.20
2018-08-04T23:11:04.017Z,16.02
2018-08-04T23:13:33.722Z,16.52
2018-08-04T23:16:04.587Z,15.40
2018-08-04T23:18:34.263Z,15.23
2018-08-04T23:21:04.027Z,15.53
2018-08-04T23:23:33.771Z,14.55
2018-08-04T23:26:04.587Z,13.18
2018-08-04T23:28:34.636Z,14.78
2018-08-04T23:31:04.656Z,14.20
2018-08-04T23:33:34.357Z,14.40
2018-08-04T23:36:04.237Z,14.43
2018-08-04T23:38:33.942Z,14.03
2018-08-04T23:41:04.425Z,13.70
2018-08-04T23:43:34.413Z,13.75
2018-08-04T23:46:04.170Z,14.18
2018-08-04T23:48:33.701Z,13.28
2018-08-04T23:51:04.108Z,13.45
2018-08-04T23:53:34.479Z,13.50
2018-08-04T23:56:04.492Z,13.35
2018-08-04T23:58:34.259Z,13.90
